Terminal Aerodrome Forecast
Issued by NWS

Home | Current Version | Previous Version | Text Only | Print | Product List | Glossary On
Versions: 1 2 3 4 5 6 7 8 9 10 11 12 13 14 15 16 17 18 19 20 21
000
FTUS43 KDVN 170800 AAA
TAFCID
TAF AMD
KCID 170820Z 1708/1806 32012KT P6SM OVC016
     FM171400 31012KT P6SM BKN020
     FM171600 32010KT P6SM SCT025
     FM180000 34004KT P6SM SCT200=

USA.gov is the U.S. government's official web portal to all federal, state and local government web resources and services.